Aviation Digital Data Service (ADDS)

Output produced by METARs form (0043 UTC 24 May 2022)
found at http://www.aviationweather.gov/metar/data/
 
EPZG 232000Z 09007KT 040V130 CAVOK 16/05 Q1007
TAF EPZG 232030Z 2321/2406 09007KT CAVOK
       
EPKK 240030Z 04005KT CAVOK 10/07 Q1010
TAF EPKK 232330Z 2400/2424 05004KT CAVOK 
     TEMPO 2409/2418 -RA BKN014 
     TEMPO 2418/2424 4000 BR
       
TAF EPDE 232300Z 2400/2409 09004KT CAVOK 
     BECMG 2406/2408 15014KT
       
EPSC 240030Z 12017KT CAVOK 15/05 Q1003
TAF EPSC 232330Z 2400/2424 14014KT CAVOK 
     PROB40 
     TEMPO 2400/2407 15017G27KT 
     TEMPO 2404/2412 4000 RA BKN007 BKN012 
     PROB40 
     TEMPO 2407/2411 2000 SHRA BKN004 BKN009CB 
     BECMG 2409/2412 25009KT 
     TEMPO 2412/2421 SHRA BKN025CB 
     PROB40 
     TEMPO 2413/2416 VRB15G30KT 2000 TSGR SCT010 BKN014CB
       
EPRZ 240030Z 07003KT CAVOK 05/05 Q1011
TAF EPRZ 232330Z 2400/2424 VRB02KT CAVOK 
     TEMPO 2400/2405 4000 BR 
     BECMG 2402/2405 13010KT 
     BECMG 2411/2414 20005KT
       
TAF EPKS 232300Z 2400/2409 12008KT CAVOK 
     BECMG 2404/2406 BKN040 
     PROB30 
     TEMPO 2403/2405 5000 BR 
     BECMG 2406/2408 16008KT BKN020 
     TEMPO 2407/2409 5000 SHRA BKN013CB
       
EPPO 240030Z 13013KT CAVOK 13/07 Q1006
TAF EPPO 232330Z 2400/2424 13010KT CAVOK 
     BECMG 2407/2409 BKN013 
     TEMPO 2409/2412 RA BKN008 
     BECMG 2412/2415 VRB02KT BKN020 
     PROB40 
     TEMPO 2415/2421 VRB18G30KT 2000 TSRA BKN020CB 
     BECMG 2418/2421 27010KT
       
EPLL 240030Z 09004KT CAVOK 09/07 Q1009
TAF EPLL 232330Z 2400/2424 12008KT CAVOK 
     PROB40 2412/2424 4500 -RA BR BKN014
       
EPWA 240030Z 12005KT CAVOK 10/07 Q1011 NOSIG
TAF EPWA 232330Z 2400/2424 15008KT CAVOK 
     TEMPO 2407/2415 16015G25KT 
     PROB30 2416/2424 -RA BKN014
       
EPKT 240030Z 11012KT CAVOK 12/05 Q1009
TAF EPKT 232330Z 2400/2424 11012KT CAVOK 
     BECMG 2408/2411 18010KT BKN014 
     TEMPO 2408/2424 4000 -RA BR BKN007 
     BECMG 2421/2424 25004KT
       
EPGD 240030Z 13007KT CAVOK 09/06 Q1009
TAF EPGD 232330Z 2400/2424 12010KT CAVOK 
     TEMPO 2405/2412 15016G28KT 
     PROB40 
     TEMPO 2409/2412 -SHRA SCT025CB 
     TEMPO 2412/2416 16018G33KT 3500 SHRA BKN005 BKN013CB 
     BECMG 2418/2420 18005KT 3000 BR BKN008
       
EPWR 240030Z 14012KT CAVOK 15/07 Q1006
TAF EPWR 232330Z 2400/2424 12010KT CAVOK 
     BECMG 2404/2407 18005KT 
     PROB30 
     TEMPO 2408/2412 RA BKN014 
     TEMPO 2412/2424 4000 SHRA BKN020CB 
     PROB40 
     TEMPO 2415/2421 VRB18G30KT 2000 TSRA BKN014CB
       
TAF EPSN 232300Z 2400/2409 12012KT CAVOK 
     BECMG 2404/2406 BKN020 
     BECMG 2407/2409 5000 RA BKN006 OVC010
       
EPBY 240030Z 11005KT CAVOK 09/04 Q1008
TAF EPBY 232330Z 2400/2424 12010KT CAVOK 
     PROB40 
     TEMPO 2409/2418 4000 SHRA BKN025CB 
     BECMG 2421/2424 VRB03KT
       
EPSY 240030Z VRB02KT CAVOK 06/06 Q1012
TAF EPSY 232330Z 2400/2409 VRB02KT CAVOK 
     BECMG 2406/2409 14010KT